Time;durP1;ratioP1;P1;durP2;ratioP2;P2;SDS_P1;SDS_P2;PMS_P1;PMS_P2;Temp;Humidity;BMP_temperature;BMP_pressure;BME280_temperature;BME280_humidity;BME280_pressure;Samples;Min_cycle;Max_cycle;Signal;HPM_P1;HPM_P2
2023/04/15 00:01:01;;;;;;;6.57;5.00;;;8.50;99.90;;;7.96;75.63;100276.75;5093826;28;20189;-75
2023/04/15 00:03:33;;;;;;;6.07;5.30;;;8.50;99.90;;;7.86;76.16;100276.84;5093779;28;20208;-75
2023/04/15 00:06:07;;;;;;;5.80;5.20;;;8.50;99.90;;;7.86;75.82;100260.88;5093418;28;20620;-75
2023/04/15 00:08:39;;;;;;;5.87;5.27;;;8.40;99.90;;;7.80;76.22;100261.50;5093663;28;20233;-75
2023/04/15 00:11:11;;;;;;;6.10;5.30;;;8.40;99.90;;;7.77;76.61;100259.13;5093719;28;20290;-75
2023/04/15 00:13:43;;;;;;;6.70;5.10;;;8.30;99.90;;;7.79;76.55;100253.63;5093591;28;20311;-75
2023/04/15 00:16:16;;;;;;;5.73;5.03;;;8.30;99.90;;;7.79;76.99;100253.63;5093649;28;20197;-75
2023/04/15 00:18:48;;;;;;;5.47;4.83;;;8.40;99.90;;;7.78;76.31;100242.13;5093247;28;20235;-75
2023/04/15 00:21:21;;;;;;;6.07;4.83;;;8.40;99.90;;;7.81;76.60;100246.34;5093609;28;20189;-75
2023/04/15 00:23:53;;;;;;;6.13;4.67;;;8.40;99.90;;;7.70;76.64;100243.91;5093558;28;20185;-75
2023/04/15 00:26:25;;;;;;;6.27;5.17;;;8.30;99.90;;;7.74;77.45;100239.94;5093561;28;20184;-75
2023/04/15 00:28:56;;;;;;;5.10;4.60;;;8.30;99.90;;;7.68;77.65;100235.22;5093422;28;20237;-75
2023/04/15 00:31:29;;;;;;;5.67;4.67;;;8.30;99.90;;;7.67;77.67;100238.91;5093501;28;20197;-75
2023/04/15 00:34:02;;;;;;;6.67;4.90;;;8.30;99.90;;;7.64;77.93;100245.34;5093379;28;20212;-75
2023/04/15 00:36:36;;;;;;;5.70;5.07;;;8.30;99.90;;;7.64;77.61;100245.34;5093383;28;20189;-75
2023/04/15 00:39:08;;;;;;;5.87;5.27;;;8.30;99.90;;;7.62;78.13;100247.34;5093139;28;20572;-75
2023/04/15 00:41:40;;;;;;;6.83;5.23;;;8.20;99.90;;;7.60;78.04;100231.50;5093409;28;20192;-75
2023/04/15 00:44:11;;;;;;;5.70;5.20;;;8.30;99.90;;;7.53;77.94;100233.09;5093415;28;20185;-75
2023/04/15 00:46:44;;;;;;;5.53;4.93;;;8.10;99.90;;;7.53;78.52;100229.63;5093343;28;20193;-75
2023/04/15 00:49:17;;;;;;;8.00;5.47;;;8.10;99.90;;;7.53;78.28;100234.94;5093388;28;20284;-75
2023/04/15 00:51:50;;;;;;;6.10;5.50;;;8.20;99.90;;;7.45;78.54;100233.03;5093018;28;20584;-75
2023/04/15 00:54:22;;;;;;;6.03;5.43;;;8.10;99.90;;;7.51;78.21;100240.41;5093251;28;20213;-75
2023/04/15 00:56:54;;;;;;;5.80;4.83;;;8.10;99.90;;;7.53;77.85;100242.94;5092894;28;20701;-75
2023/04/15 00:59:26;;;;;;;7.43;5.43;;;8.20;99.90;;;7.55;77.28;100240.94;5092769;28;20222;-75
2023/04/15 01:01:58;;;;;;;5.60;5.10;;;8.20;99.90;;;7.53;77.78;100233.09;5095353;28;20197;-75
2023/04/15 01:04:30;;;;;;;6.93;5.27;;;8.10;99.90;;;7.50;77.61;100232.59;5096741;28;20653;-75
2023/04/15 01:07:04;;;;;;;6.00;5.37;;;8.10;99.90;;;7.50;77.66;100233.41;5096945;28;20225;-75
2023/04/15 01:09:35;;;;;;;6.10;5.50;;;8.10;99.90;;;7.47;78.32;100232.88;5096972;28;20189;-75
2023/04/15 01:12:10;;;;;;;6.03;5.50;;;8.10;99.90;;;7.48;78.21;100230.06;5096952;28;20201;-75
2023/04/15 01:14:41;;;;;;;6.43;5.67;;;8.10;99.90;;;7.46;78.81;100224.06;5096841;28;20188;-75
2023/04/15 01:17:13;;;;;;;6.57;5.73;;;8.10;99.90;;;7.43;78.81;100227.00;5096731;28;20225;-75
2023/04/15 01:19:45;;;;;;;8.03;6.70;;;8.10;99.90;;;7.42;78.60;100225.34;5096761;28;20193;-75
2023/04/15 01:22:19;;;;;;;6.80;5.63;;;8.00;99.90;;;7.41;79.01;100221.00;5096739;28;20196;-75
2023/04/15 01:25:03;;;;;;;6.60;5.80;;;8.10;99.90;;;7.39;78.92;100219.50;5096347;28;20640;-75
2023/04/15 01:27:38;;;;;;;6.83;6.00;;;8.10;99.90;;;7.35;79.18;100220.78;5096574;28;20248;-75
2023/04/15 01:30:13;;;;;;;7.87;6.27;;;8.00;99.90;;;7.37;79.08;100222.31;5096589;28;20220;-75
2023/04/15 01:32:45;;;;;;;7.53;6.57;;;8.00;99.90;;;7.37;79.25;100218.78;5096431;28;20205;-75
2023/04/15 01:35:17;;;;;;;9.83;6.40;;;8.00;99.90;;;7.40;79.25;100229.97;5096184;28;20601;-75
2023/04/15 01:37:49;;;;;;;8.00;6.67;;;8.00;99.90;;;7.41;79.48;100223.69;5096030;28;20640;-75
2023/04/15 01:40:21;;;;;;;10.37;7.30;;;8.10;99.90;;;7.43;79.02;100221.69;5096343;28;20192;-75
2023/04/15 01:42:54;;;;;;;8.50;6.40;;;8.10;99.90;;;7.33;79.57;100220.94;5096346;28;20185;-75
2023/04/15 01:45:26;;;;;;;11.23;7.93;;;8.00;99.90;;;7.35;79.71;100216.31;5095985;28;20189;-75
2023/04/15 01:47:58;;;;;;;10.83;7.80;;;8.00;99.90;;;7.36;79.59;100222.47;5096164;28;20236;-75
2023/04/15 01:50:30;;;;;;;9.73;8.40;;;8.00;99.90;;;7.34;80.35;100211.97;5096191;28;20250;-75
2023/04/15 01:53:02;;;;;;;11.23;9.10;;;8.00;99.90;;;7.30;80.66;100210.59;5095729;28;20692;-75
2023/04/15 01:55:34;;;;;;;10.03;8.70;;;8.00;99.90;;;7.31;80.72;100211.41;5095779;28;20669;-75
2023/04/15 01:58:07;;;;;;;11.00;8.60;;;8.00;99.90;;;7.20;80.80;100203.66;5095797;28;20225;-75
2023/04/15 02:00:39;;;;;;;11.37;9.27;;;7.90;99.90;;;7.18;81.17;100203.81;5095964;28;20193;-75
2023/04/15 02:03:12;;;;;;;11.70;9.10;;;7.90;99.90;;;7.21;81.42;100203.50;5095948;28;20212;-75
2023/04/15 02:05:45;;;;;;;11.10;8.53;;;7.90;99.90;;;7.21;81.68;100197.34;5095598;28;20708;-75
2023/04/15 02:08:17;;;;;;;11.40;9.03;;;7.90;99.90;;;7.20;81.79;100201.84;5095757;28;20619;-75
2023/04/15 02:10:49;;;;;;;9.90;8.70;;;7.90;99.90;;;7.27;81.19;100199.41;5095798;28;20189;-75
2023/04/15 02:13:22;;;;;;;12.03;10.03;;;7.90;99.90;;;7.22;81.68;100191.88;5095196;28;20212;-75
2023/04/15 02:15:55;;;;;;;12.30;10.37;;;7.90;99.90;;;7.24;81.32;100187.22;5095690;28;20196;-75
2023/04/15 02:18:27;;;;;;;12.13;10.63;;;7.90;99.90;;;7.25;81.89;100190.75;5095562;28;20232;-75
2023/04/15 02:20:58;;;;;;;12.73;10.40;;;7.90;99.90;;;7.20;82.31;100198.34;5095620;28;20197;-75
2023/04/15 02:23:30;;;;;;;12.47;10.50;;;7.80;99.90;;;7.23;81.75;100190.88;5095530;28;20562;-75
2023/04/15 02:26:02;;;;;;;13.33;10.87;;;7.90;99.90;;;7.18;81.96;100189.66;5095471;28;20189;-75
2023/04/15 02:28:35;;;;;;;12.60;10.37;;;7.90;99.90;;;7.20;82.36;100183.19;5095442;28;20232;-75
2023/04/15 02:31:09;;;;;;;14.27;11.30;;;7.90;99.90;;;7.11;82.75;100184.97;5095444;28;20188;-75
2023/04/15 02:33:41;;;;;;;15.10;11.90;;;7.80;99.90;;;7.16;82.50;100195.13;5095288;28;20213;-75
2023/04/15 02:36:13;;;;;;;13.57;11.17;;;7.90;99.90;;;7.15;83.29;100193.47;5094962;28;20616;-75
2023/04/15 02:38:45;;;;;;;13.93;11.27;;;7.80;99.90;;;7.18;82.89;100184.34;5095196;28;20231;-75
2023/04/15 02:41:17;;;;;;;15.30;11.60;;;7.90;99.90;;;7.20;82.51;100188.53;5095218;28;20193;-75
2023/04/15 02:43:51;;;;;;;12.57;10.87;;;7.90;99.90;;;7.18;83.15;100193.19;5094840;28;20626;-75
2023/04/15 02:46:23;;;;;;;13.33;10.93;;;7.90;99.90;;;7.22;82.76;100194.56;5094837;28;20641;-75
2023/04/15 02:48:54;;;;;;;13.13;11.43;;;7.90;99.90;;;7.21;83.18;100198.19;5094984;28;20228;-75
2023/04/15 02:51:30;;;;;;;14.57;11.80;;;7.90;99.90;;;7.19;83.07;100200.19;5095011;28;20189;-76
2023/04/15 02:54:02;;;;;;;14.87;11.57;;;7.90;99.90;;;7.13;83.31;100200.75;5094582;28;20204;-75
2023/04/15 02:56:34;;;;;;;15.67;11.30;;;7.80;99.90;;;7.17;83.31;100201.28;5094831;28;20189;-75
2023/04/15 02:59:08;;;;;;;15.13;12.20;;;7.90;99.90;;;7.15;83.23;100209.44;5094593;28;20212;-75
2023/04/15 03:01:39;;;;;;;13.17;11.00;;;7.80;99.90;;;7.12;83.51;100207.91;5094482;28;20541;-75
2023/04/15 03:04:12;;;;;;;15.20;12.37;;;7.80;99.90;;;7.12;83.92;100197.25;5094743;28;20182;-75
2023/04/15 03:06:44;;;;;;;13.10;11.23;;;7.80;99.90;;;7.15;83.45;100198.81;5094624;28;20272;-75
2023/04/15 03:09:16;;;;;;;14.67;11.90;;;7.80;99.90;;;7.17;83.35;100202.13;5094661;28;20193;-75
2023/04/15 03:11:48;;;;;;;14.63;11.60;;;7.90;99.90;;;7.15;83.77;100201.47;5094628;28;20559;-75
2023/04/15 03:14:21;;;;;;;13.93;11.70;;;7.80;99.90;;;7.11;83.75;100200.09;5094200;28;20262;-75
2023/04/15 03:16:53;;;;;;;14.73;12.13;;;7.80;99.90;;;7.13;83.75;100198.94;5094466;28;20236;-75
2023/04/15 03:19:25;;;;;;;15.73;11.80;;;7.80;99.90;;;7.15;83.57;100201.47;5094170;28;20592;-75
2023/04/15 03:21:57;;;;;;;16.20;12.40;;;7.80;99.90;;;7.12;84.14;100201.78;5094096;28;20601;-75
2023/04/15 03:24:30;;;;;;;16.87;13.50;;;7.80;99.90;;;7.08;84.82;100197.72;5093253;28;20653;-75
2023/04/15 03:27:02;;;;;;;15.33;12.93;;;7.80;99.90;;;7.11;84.24;100200.09;5094461;28;20231;-76
2023/04/15 03:29:35;;;;;;;16.20;12.70;;;7.80;99.90;;;7.09;84.53;100196.72;5094304;28;20185;-75
2023/04/15 03:32:06;;;;;;;17.13;13.80;;;7.80;99.90;;;7.06;84.60;100192.56;5094336;28;20196;-75
2023/04/15 03:34:38;;;;;;;17.03;13.90;;;7.70;99.90;;;7.06;85.10;100197.03;5094174;28;20235;-75
2023/04/15 03:37:10;;;;;;;18.60;14.63;;;7.80;99.90;;;7.07;84.71;100198.72;5094133;28;20221;-75
2023/04/15 03:39:42;;;;;;;18.00;14.33;;;7.70;99.90;;;7.07;84.47;100193.38;5094154;28;20185;-75
2023/04/15 03:42:14;;;;;;;19.73;15.23;;;7.80;99.90;;;7.05;84.88;100192.72;5093790;28;20192;-75
2023/04/15 03:44:47;;;;;;;17.30;14.47;;;7.70;99.90;;;7.05;84.36;100195.38;5093747;28;20660;-75
2023/04/15 03:47:19;;;;;;;18.77;14.97;;;7.70;99.90;;;7.04;84.89;100199.84;5093964;28;20229;-75
2023/04/15 03:49:51;;;;;;;20.40;15.60;;;7.80;99.90;;;7.05;84.92;100195.38;5093679;28;20641;-75
2023/04/15 03:52:23;;;;;;;21.07;16.37;;;7.80;99.90;;;7.02;85.11;100203.66;5093945;28;20193;-75
2023/04/15 03:54:55;;;;;;;20.43;16.07;;;7.70;99.90;;;6.94;85.75;100193.78;5093837;28;20212;-75
2023/04/15 03:57:27;;;;;;;23.80;15.83;;;7.70;99.90;;;6.95;85.66;100202.59;5093828;28;20228;-75
2023/04/15 04:00:00;;;;;;;21.67;17.00;;;7.70;99.90;;;6.99;85.54;100204.78;5093399;28;20216;-75
2023/04/15 04:02:32;;;;;;;20.27;16.03;;;7.70;99.90;;;7.00;85.61;100206.47;5093819;28;20193;-75
2023/04/15 04:05:04;;;;;;;21.50;17.07;;;7.70;99.90;;;6.94;86.12;100204.41;5093779;28;20196;-75
2023/04/15 04:07:36;;;;;;;20.90;16.60;;;7.70;99.90;;;6.92;86.92;100205.53;5093647;28;20236;-76
2023/04/15 04:10:10;;;;;;;21.23;16.50;;;7.60;99.90;;;6.95;86.53;100202.59;5093742;28;20224;-75
2023/04/15 04:12:42;;;;;;;22.43;17.03;;;7.60;99.90;;;6.92;86.51;100198.38;5093728;28;20193;-75
2023/04/15 04:15:16;;;;;;;23.47;18.10;;;7.60;99.90;;;6.88;86.75;100201.50;5093594;28;20205;-75
2023/04/15 04:17:47;;;;;;;24.07;19.50;;;7.60;99.90;;;6.85;87.26;100193.84;5093584;28;20225;-75
2023/04/15 04:20:20;;;;;;;22.70;18.27;;;7.60;99.90;;;6.91;86.31;100190.56;5093389;28;20825;-75
2023/04/15 04:22:52;;;;;;;24.37;19.10;;;7.60;99.90;;;6.86;86.99;100190.16;5093814;28;20198;-75
2023/04/15 04:25:23;;;;;;;24.50;19.60;;;7.50;99.90;;;6.89;86.53;100196.03;5093609;28;20181;-75
2023/04/15 04:27:55;;;;;;;27.17;19.13;;;7.60;99.90;;;6.85;87.17;100199.16;5093209;28;20224;-75
2023/04/15 04:30:29;;;;;;;24.57;19.43;;;7.50;99.90;;;6.86;86.79;100196.34;5093258;28;20694;-75
2023/04/15 04:33:00;;;;;;;27.60;20.47;;;7.60;99.90;;;6.87;87.33;100194.50;5093521;28;20192;-75
2023/04/15 04:35:33;;;;;;;25.23;19.93;;;7.60;99.90;;;6.78;87.81;100203.41;5094984;28;20303;-75
2023/04/15 04:38:05;;;;;;;26.97;21.17;;;7.50;99.90;;;6.80;87.52;100196.94;5097532;28;20320;-75
2023/04/15 04:40:37;;;;;;;28.67;20.93;;;7.50;99.90;;;6.77;87.55;100191.06;5097597;28;20609;-75
2023/04/15 04:43:09;;;;;;;32.33;22.77;;;7.50;99.90;;;6.69;88.36;100190.97;5097500;28;20189;-75
2023/04/15 04:45:42;;;;;;;31.50;22.17;;;7.50;99.90;;;6.63;88.49;100198.56;5079900;28;20189;-75
2023/04/15 04:48:14;;;;;;;27.33;20.20;;;7.40;99.90;;;6.69;88.52;100199.78;5097041;28;20252;-75
2023/04/15 04:50:46;;;;;;;30.43;22.23;;;7.40;99.90;;;6.74;88.25;100202.84;5097353;28;20189;-75
2023/04/15 04:53:19;;;;;;;28.03;21.33;;;7.50;99.90;;;6.68;88.64;100199.97;5097002;28;20652;-75
2023/04/15 04:55:51;;;;;;;28.03;20.50;;;7.50;99.90;;;6.67;89.30;100203.59;5097179;28;20213;-75
2023/04/15 04:58:23;;;;;;;28.40;21.10;;;7.40;99.90;;;6.68;89.12;100203.44;5096707;28;20233;-76
2023/04/15 05:00:56;;;;;;;26.77;21.17;;;7.40;99.90;;;6.70;89.05;100204.13;5096816;28;20541;-76
2023/04/15 05:03:28;;;;;;;28.43;21.80;;;7.40;99.90;;;6.73;89.05;100210.97;5096813;28;20650;-76
2023/04/15 05:06:01;;;;;;;29.33;21.23;;;7.40;99.90;;;6.67;89.29;100206.25;5096804;28;20185;-76
2023/04/15 05:08:33;;;;;;;27.00;21.17;;;7.40;99.90;;;6.71;89.40;100204.97;5096930;28;20233;-76
2023/04/15 05:11:06;;;;;;;28.30;20.83;;;7.50;99.90;;;6.67;89.79;100211.56;5096985;28;20193;-76
2023/04/15 05:13:38;;;;;;;26.80;20.80;;;7.40;99.90;;;6.72;89.31;100206.63;5096932;28;20190;-76
2023/04/15 05:16:11;;;;;;;28.80;21.97;;;7.50;99.90;;;6.60;89.88;100214.00;5096510;28;20677;-76
2023/04/15 05:18:43;;;;;;;28.53;21.27;;;7.40;99.90;;;6.65;89.78;100203.72;5096460;28;20573;-76
2023/04/15 05:21:15;;;;;;;25.17;19.70;;;7.40;99.90;;;6.65;89.51;100214.38;5096784;28;20185;-76
2023/04/15 05:23:47;;;;;;;27.77;19.13;;;7.40;99.90;;;6.67;89.75;100211.56;5096723;28;20185;-76
2023/04/15 05:26:20;;;;;;;27.57;19.47;;;7.40;99.90;;;6.68;89.54;100205.28;5096293;28;20581;-76
2023/04/15 05:28:52;;;;;;;26.17;19.97;;;7.40;99.90;;;6.69;90.04;100204.28;5096535;28;20229;-76
2023/04/15 05:31:25;;;;;;;23.50;18.97;;;7.40;99.90;;;6.69;89.95;100204.28;5096554;28;20197;-76
2023/04/15 05:33:58;;;;;;;28.43;19.53;;;7.40;99.90;;;6.70;90.18;100205.97;5096252;28;20705;-76
2023/04/15 05:36:30;;;;;;;26.23;19.13;;;7.40;99.90;;;6.70;89.78;100196.16;5096420;28;20258;-76
2023/04/15 05:39:01;;;;;;;25.87;18.60;;;7.50;99.90;;;6.63;90.61;100193.25;5096551;28;20189;-76
2023/04/15 05:41:34;;;;;;;22.97;17.93;;;7.40;99.90;;;6.72;89.75;100199.50;5096104;28;20627;-76
2023/04/15 05:44:06;;;;;;;22.33;16.83;;;7.50;99.90;;;6.77;89.49;100188.41;5096371;28;20196;-76
2023/04/15 05:46:39;;;;;;;21.20;16.80;;;7.50;99.90;;;6.82;89.09;100183.47;5095278;28;20188;-76
2023/04/15 05:49:11;;;;;;;20.10;17.20;;;7.50;99.90;;;6.83;89.08;100190.47;5095906;28;20668;-76
2023/04/15 05:51:43;;;;;;;19.03;15.77;;;7.50;99.90;;;6.78;89.55;100176.78;5096185;28;20190;-76
2023/04/15 05:54:15;;;;;;;20.87;16.73;;;7.50;99.90;;;6.74;89.48;100183.41;5096132;28;20188;-76
2023/04/15 05:56:50;;;;;;;18.83;15.80;;;7.50;99.90;;;6.78;89.26;100182.13;5095927;28;20213;-76
2023/04/15 05:59:21;;;;;;;19.67;16.47;;;7.50;99.90;;;6.78;89.59;100182.13;5095722;28;20220;-76
2023/04/15 06:01:55;;;;;;;20.13;15.63;;;7.50;99.90;;;6.72;90.29;100174.72;5096014;28;20193;-76
2023/04/15 06:04:26;;;;;;;19.10;15.23;;;7.50;99.90;;;6.74;90.35;100180.75;5095692;28;20228;-76
2023/04/15 06:06:58;;;;;;;18.33;15.00;;;7.50;99.90;;;6.74;90.31;100175.41;5095826;28;20264;-76
2023/04/15 06:09:30;;;;;;;18.77;15.43;;;7.50;99.90;;;6.72;90.65;100174.72;5095838;28;20242;-76
2023/04/15 06:12:03;;;;;;;17.00;14.17;;;7.40;99.90;;;6.77;90.01;100175.13;5095358;28;20193;-76
2023/04/15 06:14:35;;;;;;;16.20;12.50;;;7.50;99.90;;;6.70;90.50;100174.03;5095643;28;20192;-76
2023/04/15 06:17:08;;;;;;;15.87;13.30;;;7.40;99.90;;;6.69;90.61;100183.00;5095479;28;20630;-76
2023/04/15 06:19:40;;;;;;;16.40;13.43;;;7.50;99.90;;;6.66;91.01;100193.94;5095531;28;20185;-77
2023/04/15 06:22:12;;;;;;;15.50;12.97;;;7.40;99.90;;;6.64;91.06;100191.44;5095721;28;20200;-75
2023/04/15 06:24:44;;;;;;;16.63;13.53;;;7.40;99.90;;;6.70;90.95;100196.16;5095194;28;20702;-76
2023/04/15 06:27:15;;;;;;;17.40;12.37;;;7.50;99.90;;;6.69;90.40;100194.47;5095184;28;20228;-76
2023/04/15 06:29:47;;;;;;;16.53;12.97;;;7.50;99.90;;;6.69;91.56;100212.25;5095457;28;20287;-76
2023/04/15 06:32:20;;;;;;;16.57;13.07;;;7.40;99.90;;;6.66;91.40;100204.56;5094994;28;20197;-76
2023/04/15 06:34:52;;;;;;;14.07;12.27;;;7.40;99.90;;;6.69;91.20;100212.25;5095232;28;20631;-76
2023/04/15 06:37:24;;;;;;;14.97;12.20;;;7.40;99.90;;;6.68;91.69;100207.94;5095023;28;20229;-77
2023/04/15 06:39:56;;;;;;;14.10;11.53;;;7.50;99.90;;;6.68;91.93;100219.38;5095124;28;20196;-77
2023/04/15 06:42:28;;;;;;;13.27;11.27;;;7.40;99.90;;;6.67;92.00;100208.91;5095043;28;20189;-77
2023/04/15 06:45:00;;;;;;;14.50;11.57;;;7.40;99.90;;;6.70;91.89;100212.13;5094993;28;20193;-77
2023/04/15 06:47:33;;;;;;;13.20;11.27;;;7.50;99.90;;;6.70;92.24;100208.63;5094851;28;20335;-77
2023/04/15 06:50:05;;;;;;;14.27;10.97;;;7.40;99.90;;;6.67;92.20;100211.56;5094866;28;20246;-77
2023/04/15 06:52:37;;;;;;;12.57;10.63;;;7.50;99.90;;;6.71;91.94;100212.97;5094889;28;20196;-77
2023/04/15 06:55:11;;;;;;;14.20;10.17;;;7.50;99.90;;;6.75;91.50;100209.00;5094764;28;20191;-77
2023/04/15 06:57:44;;;;;;;13.17;10.17;;;7.50;99.90;;;6.74;91.91;100207.34;5094591;28;20231;-77
2023/04/15 07:00:17;;;;;;;13.33;10.80;;;7.50;99.90;;;6.71;92.32;100207.63;5094732;28;20200;-76
2023/04/15 07:02:50;;;;;;;12.20;10.07;;;7.50;99.90;;;6.76;92.04;100218.66;5094748;28;20193;-76
2023/04/15 07:05:22;;;;;;;12.20;10.07;;;7.50;99.90;;;6.74;92.56;100224.13;5094466;28;20539;-76
2023/04/15 07:07:54;;;;;;;12.10;10.40;;;7.50;99.90;;;6.75;92.44;100231.13;5094648;28;20228;-76
2023/04/15 07:10:26;;;;;;;10.90;9.60;;;7.50;99.90;;;6.77;91.99;100233.66;5094675;28;20558;-76
2023/04/15 07:12:58;;;;;;;10.97;9.07;;;7.50;99.90;;;6.80;92.13;100231.53;5094636;28;20195;-76
2023/04/15 07:15:30;;;;;;;11.10;9.90;;;7.60;99.90;;;6.79;92.02;100232.50;5094492;28;20185;-76
2023/04/15 07:18:03;;;;;;;11.07;9.37;;;7.50;99.90;;;6.81;92.05;100235.03;5094140;28;20744;-76
2023/04/15 07:20:35;;;;;;;13.53;10.20;;;7.60;99.90;;;6.81;92.35;100224.38;5094455;28;20185;-76
2023/04/15 07:23:07;;;;;;;11.70;10.20;;;7.50;99.90;;;6.82;92.01;100226.88;5094374;28;20205;-76
2023/04/15 07:25:39;;;;;;;11.77;9.00;;;7.60;99.90;;;6.87;91.88;100234.44;5094379;28;20267;-76
2023/04/15 07:28:10;;;;;;;10.50;9.20;;;7.60;99.90;;;6.89;91.38;100241.25;5094264;28;20221;-76
2023/04/15 07:30:42;;;;;;;10.73;8.70;;;7.60;99.90;;;6.90;92.11;100236.78;5094263;28;20200;-76
2023/04/15 07:33:16;;;;;;;10.13;9.00;;;7.70;99.90;;;6.93;92.15;100237.31;5094246;28;20193;-76
2023/04/15 07:35:47;;;;;;;10.50;9.40;;;7.70;99.90;;;6.91;92.87;100241.13;5094660;28;20195;-76
2023/04/15 07:38:19;;;;;;;10.90;9.27;;;7.60;99.90;;;6.91;93.04;100241.13;5093506;28;20251;-76
2023/04/15 07:40:51;;;;;;;11.13;8.47;;;7.60;99.90;;;6.87;93.16;100245.91;5093666;28;20185;-76
2023/04/15 07:43:23;;;;;;;9.77;8.27;;;7.60;99.90;;;6.88;93.61;100233.44;5093974;28;20197;-76
2023/04/15 07:45:55;;;;;;;9.07;7.70;;;7.60;99.90;;;6.89;93.69;100253.72;5093906;28;20326;-76
2023/04/15 07:48:28;;;;;;;9.83;8.47;;;7.60;99.90;;;6.84;93.47;100256.84;5093815;28;20278;-74
2023/04/15 07:51:02;;;;;;;8.97;8.03;;;7.60;99.90;;;6.87;93.29;100253.91;5094056;28;20189;-78
2023/04/15 07:53:34;;;;;;;10.93;8.83;;;7.60;99.90;;;6.88;92.67;100247.59;5093601;28;20189;-78
2023/04/15 07:56:09;;;;;;;10.73;7.77;;;7.60;99.90;;;6.88;92.58;100246.75;5093790;28;20209;-78
2023/04/15 07:58:41;;;;;;;8.23;7.23;;;7.60;99.90;;;6.90;92.95;100250.94;5093569;28;20242;-78
2023/04/15 08:01:14;;;;;;;9.27;7.23;;;7.70;99.90;;;6.89;93.62;100253.72;5093498;28;20265;-78
2023/04/15 08:03:47;;;;;;;8.13;7.33;;;7.70;99.90;;;6.90;93.67;100250.94;5093531;28;20636;-78
2023/04/15 08:06:19;;;;;;;8.43;7.53;;;7.60;99.90;;;6.93;93.39;100255.13;5093471;28;20633;-78
2023/04/15 08:08:51;;;;;;;8.53;7.20;;;7.70;99.90;;;6.95;93.54;100248.66;5093674;28;20224;-78
2023/04/15 08:11:23;;;;;;;7.27;6.33;;;7.70;99.90;;;6.99;93.26;100259.81;5093258;28;20200;-78
2023/04/15 08:13:57;;;;;;;8.43;6.70;;;7.70;99.90;;;7.00;93.65;100261.50;5093378;28;20655;-75
2023/04/15 08:16:29;;;;;;;6.80;6.10;;;7.70;99.90;;;6.99;93.83;100267.81;5093617;28;20209;-75
2023/04/15 08:19:02;;;;;;;8.63;6.23;;;7.70;99.90;;;6.98;93.89;100263.50;5093637;28;20193;-75
2023/04/15 08:21:34;;;;;;;6.97;6.27;;;7.70;99.90;;;6.99;93.97;100271.31;5093651;28;20249;-75
2023/04/15 08:24:10;;;;;;;7.63;6.30;;;7.80;99.90;;;7.00;93.59;100272.16;5093590;28;20197;-75
2023/04/15 08:26:42;;;;;;;6.13;5.43;;;7.80;99.90;;;6.99;94.07;100275.78;5093464;28;20196;-75
2023/04/15 08:29:13;;;;;;;7.13;5.67;;;7.70;99.90;;;7.00;93.84;100272.16;5093501;28;20204;-75
2023/04/15 08:31:46;;;;;;;6.30;5.50;;;7.80;99.90;;;7.00;93.67;100273.00;5093523;28;20280;-75
2023/04/15 08:34:19;;;;;;;6.40;5.40;;;7.80;99.90;;;7.02;93.67;100283.50;5093489;28;20193;-75
2023/04/15 08:36:51;;;;;;;7.00;5.70;;;7.80;99.90;;;7.04;93.13;100276.19;5093266;28;20221;-75
2023/04/15 08:39:24;;;;;;;6.70;6.00;;;7.80;99.90;;;7.05;93.19;100269.91;5093400;28;20192;-75
2023/04/15 08:42:04;;;;;;;5.97;5.37;;;7.80;99.90;;;7.05;94.15;100265.38;5093060;28;20637;-75
2023/04/15 08:44:40;;;;;;;6.80;5.70;;;7.80;99.90;;;7.07;93.71;100278.56;5093324;28;20200;-75
2023/04/15 08:47:17;;;;;;;7.27;5.57;;;7.90;99.90;;;7.07;93.88;100267.91;5093344;28;20224;-75
2023/04/15 08:49:54;;;;;;;6.10;5.40;;;7.90;99.90;;;7.07;94.30;100270.59;5093964;28;20184;-75
2023/04/15 08:52:27;;;;;;;6.47;5.73;;;7.80;99.90;;;7.11;94.01;100266.63;5093363;28;20193;-75
2023/04/15 08:55:02;;;;;;;6.73;5.70;;;7.90;99.90;;;7.16;93.86;100261.69;5093337;28;20193;-74
2023/04/15 08:57:35;;;;;;;6.33;5.63;;;7.90;99.90;;;7.18;94.47;100259.72;5093144;28;20227;-74
2023/04/15 09:00:11;;;;;;;6.87;6.10;;;7.90;99.90;;;7.21;94.30;100269.22;5092904;28;20262;-74
2023/04/15 09:02:43;;;;;;;7.40;6.30;;;8.00;99.90;;;7.21;93.95;100271.91;5092914;28;20614;-74
2023/04/15 09:05:17;;;;;;;7.43;6.57;;;8.00;99.90;;;7.22;94.38;100281.56;5093179;28;20193;-74
2023/04/15 09:07:50;;;;;;;7.43;6.03;;;8.00;99.90;;;7.23;94.35;100281.41;5092822;28;20221;-76
2023/04/15 09:10:24;;;;;;;8.60;7.40;;;8.00;99.90;;;7.25;94.97;100287.44;5093154;28;20220;-76
2023/04/15 09:12:57;;;;;;;8.83;6.87;;;8.00;99.90;;;7.26;95.04;100286.41;5093138;28;20193;-76
2023/04/15 09:15:32;;;;;;;9.73;7.50;;;8.00;99.90;;;7.27;95.16;100293.44;5093188;28;20188;-76
2023/04/15 09:18:04;;;;;;;9.47;7.33;;;8.00;99.90;;;7.28;94.90;100297.78;5092668;28;20708;-76
2023/04/15 09:20:43;;;;;;;9.30;7.13;;;8.00;99.90;;;7.29;94.67;100304.78;5092757;28;20556;-76
2023/04/15 09:23:18;;;;;;;11.00;8.13;;;8.10;99.90;;;7.29;95.01;100304.78;5095440;28;20189;-76
2023/04/15 09:25:53;;;;;;;9.97;8.30;;;8.10;99.90;;;7.29;95.05;100310.13;5096601;28;20193;-76
2023/04/15 09:28:30;;;;;;;11.93;8.17;;;8.00;99.90;;;7.30;95.30;100311.75;5096546;28;20236;-76
2023/04/15 09:31:04;;;;;;;10.73;8.63;;;8.10;99.90;;;7.32;94.96;100320.47;5096606;28;20552;-76
2023/04/15 09:33:53;;;;;;;12.40;9.00;;;8.10;99.90;;;7.34;95.41;100328.28;5096545;28;20242;-76
2023/04/15 09:36:28;;;;;;;13.23;9.87;;;8.10;99.90;;;7.35;95.13;100321.97;5096225;28;20189;-76
2023/04/15 09:39:02;;;;;;;14.17;9.93;;;8.10;99.90;;;7.37;95.45;100322.66;5096487;28;20207;-76
2023/04/15 09:41:34;;;;;;;15.57;11.00;;;8.10;99.90;;;7.36;95.91;100321.84;5096443;28;20189;-76
2023/04/15 09:44:06;;;;;;;15.03;10.40;;;8.10;99.90;;;7.40;95.85;100335.66;5096332;28;20188;-76
2023/04/15 09:46:49;;;;;;;13.53;10.13;;;8.10;99.90;;;7.41;95.92;100332.03;5096189;28;20193;-76
2023/04/15 09:49:22;;;;;;;16.13;11.43;;;8.20;99.90;;;7.44;95.74;100329.06;5096288;28;20207;-76
2023/04/15 09:52:00;;;;;;;14.80;11.23;;;8.20;99.90;;;7.46;95.92;100324.44;5096178;28;20204;-76
2023/04/15 09:54:41;;;;;;;15.47;11.00;;;8.20;99.90;;;7.49;95.46;100321.47;5096082;28;20227;-76
2023/04/15 09:57:14;;;;;;;14.60;11.10;;;8.20;99.90;;;7.51;95.98;100324.81;5095957;28;20232;-76
2023/04/15 09:59:46;;;;;;;18.23;13.37;;;8.30;99.90;;;7.53;96.12;100322.84;5095643;28;20221;-76
2023/04/15 10:02:20;;;;;;;21.00;15.40;;;8.30;99.90;;;7.54;95.99;100321.84;5096020;28;20228;-76
2023/04/15 10:04:54;;;;;;;19.80;14.83;;;8.30;99.90;;;7.55;96.75;100331.50;5096019;28;20193;-76
2023/04/15 10:07:28;;;;;;;21.00;15.40;;;8.30;99.90;;;7.57;96.86;100330.38;5095844;28;20221;-76
2023/04/15 10:10:04;;;;;;;20.20;15.20;;;8.30;99.90;;;7.58;96.39;100332.06;5095563;28;20672;-76
2023/04/15 10:12:37;;;;;;;22.87;15.43;;;8.30;99.90;;;7.59;96.49;100333.75;5095801;28;20185;-76
2023/04/15 10:15:17;;;;;;;23.77;16.03;;;8.30;99.90;;;7.61;96.22;100337.06;5095759;28;20193;-76
2023/04/15 10:17:50;;;;;;;25.33;17.87;;;8.40;99.90;;;7.63;96.12;100329.78;5095523;28;20236;-76
2023/04/15 10:20:25;;;;;;;28.17;19.00;;;8.40;99.90;;;7.63;96.57;100324.47;5095743;28;20193;-76
2023/04/15 10:23:00;;;;;;;24.10;16.50;;;8.40;99.90;;;7.63;96.36;100329.78;5096444;28;20273;-76
2023/04/15 10:25:34;;;;;;;25.10;17.63;;;8.40;99.90;;;7.68;96.21;100331.13;5095547;28;20275;-76
2023/04/15 10:28:07;;;;;;;25.23;17.90;;;8.40;99.90;;;7.71;96.71;100329.00;5095378;28;20224;-76
2023/04/15 10:30:42;;;;;;;29.37;18.67;;;8.50;99.90;;;7.73;96.20;100335.03;5095099;28;20691;-76
2023/04/15 10:33:19;;;;;;;29.63;18.93;;;8.50;99.90;;;7.75;96.19;100329.53;5095000;28;20238;-76
2023/04/15 10:35:53;;;;;;;31.13;20.90;;;8.50;99.90;;;7.79;96.79;100333.59;5095042;28;20204;-76
2023/04/15 10:38:42;;;;;;;32.17;20.87;;;8.50;99.90;;;7.81;97.03;100331.63;5094846;28;20242;-75
2023/04/15 10:41:18;;;;;;;34.47;21.63;;;8.50;99.90;;;7.83;96.98;100330.47;5095203;28;20189;-75